createdAt,value
2018-12-28T00:01:47.789Z,23.90
2018-12-28T00:04:16.018Z,23.90
2018-12-28T00:06:44.265Z,23.90
2018-12-28T00:09:12.493Z,23.90
2018-12-28T00:11:40.773Z,23.90
2018-12-28T00:14:09.009Z,23.80
2018-12-28T00:16:37.250Z,23.80
2018-12-28T00:19:05.477Z,23.80
2018-12-28T00:21:33.742Z,23.80
2018-12-28T00:24:01.974Z,23.80
2018-12-28T00:26:30.217Z,23.80
2018-12-28T00:28:58.445Z,23.80
2018-12-28T00:31:26.698Z,23.80
2018-12-28T00:33:54.932Z,23.80
2018-12-28T00:36:23.168Z,23.80
2018-12-28T00:38:51.401Z,23.80
2018-12-28T00:41:19.641Z,23.80
2018-12-28T00:43:47.875Z,23.80
2018-12-28T00:46:16.112Z,23.70
2018-12-28T00:48:44.341Z,23.70
2018-12-28T00:51:12.605Z,23.70
2018-12-28T00:53:40.833Z,23.70
2018-12-28T00:56:09.065Z,23.70
2018-12-28T00:58:37.304Z,23.70
2018-12-28T01:01:05.542Z,23.70
2018-12-28T01:03:33.782Z,23.70
2018-12-28T01:06:02.018Z,23.70
2018-12-28T01:08:30.266Z,23.70
2018-12-28T01:10:58.494Z,23.70
2018-12-28T01:13:26.738Z,23.70
2018-12-28T01:15:54.973Z,23.70
2018-12-28T01:18:23.221Z,23.70
2018-12-28T01:20:51.451Z,23.70
2018-12-28T01:23:19.702Z,23.70
2018-12-28T01:25:47.938Z,23.70
2018-12-28T01:28:16.174Z,23.70
2018-12-28T01:30:44.406Z,23.60
2018-12-28T01:33:12.658Z,23.60
2018-12-28T01:35:40.889Z,23.60
2018-12-28T01:38:09.133Z,23.60
2018-12-28T01:40:37.365Z,23.60
2018-12-28T01:43:05.605Z,23.60
2018-12-28T01:45:33.832Z,23.60
2018-12-28T01:48:02.109Z,23.60
2018-12-28T01:50:30.346Z,23.60
2018-12-28T01:52:58.600Z,23.60
2018-12-28T01:55:26.829Z,23.60
2018-12-28T01:57:55.082Z,23.60
2018-12-28T02:00:23.326Z,23.60
2018-12-28T02:02:51.558Z,23.60
2018-12-28T02:05:19.796Z,23.60
2018-12-28T02:07:48.101Z,23.50
2018-12-28T02:10:16.347Z,23.50
2018-12-28T02:12:44.579Z,23.50
2018-12-28T02:15:12.821Z,23.50
2018-12-28T02:17:41.314Z,23.50
2018-12-28T02:20:09.558Z,23.50
2018-12-28T02:22:37.789Z,23.50
2018-12-28T02:25:06.035Z,23.50
2018-12-28T02:27:34.266Z,23.60
2018-12-28T02:30:02.508Z,23.50
2018-12-28T02:32:30.735Z,23.50
2018-12-28T02:34:58.979Z,23.50
2018-12-28T02:37:27.211Z,23.50
2018-12-28T02:39:55.449Z,23.50
2018-12-28T02:42:23.681Z,23.50
2018-12-28T02:44:51.922Z,23.50
2018-12-28T02:47:20.181Z,23.40
2018-12-28T02:49:48.414Z,23.50
2018-12-28T02:52:16.657Z,23.40
2018-12-28T02:54:44.882Z,23.50
2018-12-28T02:57:13.128Z,23.50
2018-12-28T02:59:41.379Z,23.50
2018-12-28T03:02:09.958Z,23.50
2018-12-28T03:04:38.188Z,23.50
2018-12-28T03:07:06.442Z,23.40
2018-12-28T03:09:34.683Z,23.50
2018-12-28T03:12:02.924Z,23.40
2018-12-28T03:14:31.154Z,23.40
2018-12-28T03:16:59.398Z,23.40
2018-12-28T03:19:27.625Z,23.40
2018-12-28T03:21:55.868Z,23.40
2018-12-28T03:24:24.434Z,23.40
2018-12-28T03:26:52.677Z,23.40
2018-12-28T03:29:20.910Z,23.40
2018-12-28T03:31:49.159Z,23.40
2018-12-28T03:34:17.957Z,23.40
2018-12-28T03:36:46.205Z,23.40
2018-12-28T03:39:14.438Z,23.40
2018-12-28T03:41:42.677Z,23.40
2018-12-28T03:44:10.905Z,23.40
2018-12-28T03:46:39.837Z,23.40
2018-12-28T03:49:08.092Z,23.40
2018-12-28T03:51:36.330Z,23.40
2018-12-28T03:54:04.581Z,23.40
2018-12-28T03:56:32.840Z,23.40
2018-12-28T03:59:01.066Z,23.40
2018-12-28T04:01:29.317Z,23.40
2018-12-28T04:03:57.562Z,23.40
2018-12-28T04:06:25.793Z,23.40
2018-12-28T04:08:54.658Z,23.40
2018-12-28T04:11:22.886Z,23.40
2018-12-28T04:13:51.697Z,23.40
2018-12-28T04:16:19.925Z,23.40
2018-12-28T04:18:48.170Z,23.40
2018-12-28T04:21:16.426Z,23.40
2018-12-28T04:23:44.661Z,23.30
2018-12-28T04:26:12.893Z,23.30
2018-12-28T04:28:41.154Z,23.30
2018-12-28T04:31:09.391Z,23.30
2018-12-28T04:33:37.658Z,23.30
2018-12-28T04:36:05.895Z,23.30
2018-12-28T04:38:34.714Z,23.30
2018-12-28T04:41:02.945Z,23.30
2018-12-28T04:43:31.215Z,23.40
2018-12-28T04:45:59.468Z,23.40
2018-12-28T04:48:27.710Z,23.40
2018-12-28T04:50:56.215Z,23.30
2018-12-28T04:53:24.482Z,23.30
2018-12-28T04:55:52.714Z,23.30
2018-12-28T04:58:22.073Z,23.30
2018-12-28T05:00:52.957Z,23.30
2018-12-28T05:03:24.473Z,23.30
2018-12-28T05:06:10.726Z,23.30
2018-12-28T05:09:09.270Z,23.30
2018-12-28T05:11:50.086Z,23.30
2018-12-28T05:14:36.491Z,23.30
2018-12-28T05:17:24.706Z,23.30
2018-12-28T05:19:56.226Z,23.30
2018-12-28T05:22:39.973Z,23.20
2018-12-28T05:25:14.574Z,23.30
2018-12-28T05:28:07.189Z,23.20
2018-12-28T05:30:47.873Z,23.20
2018-12-28T05:33:16.101Z,23.20
2018-12-28T05:35:44.346Z,23.20
2018-12-28T05:38:12.582Z,23.20
2018-12-28T05:40:40.822Z,23.20
2018-12-28T05:43:09.053Z,23.20
2018-12-28T05:45:37.297Z,23.20
2018-12-28T05:48:05.528Z,23.30
2018-12-28T05:50:33.789Z,23.30
2018-12-28T05:53:02.019Z,23.30
2018-12-28T05:55:30.257Z,23.30
2018-12-28T05:57:58.528Z,23.30
2018-12-28T06:00:26.765Z,23.30
2018-12-28T06:02:54.997Z,23.30
2018-12-28T06:05:23.708Z,23.30
2018-12-28T06:07:51.937Z,23.30
2018-12-28T06:10:20.178Z,23.30
2018-12-28T06:12:48.754Z,23.30
2018-12-28T06:15:17.017Z,23.30
2018-12-28T06:17:45.312Z,23.30
2018-12-28T06:20:13.667Z,23.30
2018-12-28T06:22:41.902Z,23.30
2018-12-28T06:25:10.138Z,23.20
2018-12-28T06:27:38.382Z,23.20
2018-12-28T06:30:08.090Z,23.20
2018-12-28T06:32:36.333Z,23.20
2018-12-28T06:35:04.557Z,23.20
2018-12-28T06:37:32.797Z,23.20
2018-12-28T06:40:01.041Z,23.20
2018-12-28T06:42:29.310Z,23.20
2018-12-28T06:44:57.605Z,23.20
2018-12-28T06:47:25.838Z,23.20
2018-12-28T06:49:54.065Z,23.20
2018-12-28T06:52:22.311Z,23.20
2018-12-28T06:55:18.285Z,23.20
2018-12-28T06:58:04.661Z,23.20
2018-12-28T07:00:42.149Z,23.20
2018-12-28T07:03:42.569Z,23.20
2018-12-28T07:06:20.017Z,23.20
2018-12-28T07:09:00.517Z,23.20
2018-12-28T07:11:37.805Z,23.20
2018-12-28T07:14:34.849Z,23.20
2018-12-28T07:17:36.565Z,23.20
2018-12-28T07:20:10.794Z,23.10
2018-12-28T07:22:45.154Z,23.10
2018-12-28T07:25:42.583Z,23.10
2018-12-28T07:28:22.785Z,23.10
2018-12-28T07:31:13.729Z,23.10
2018-12-28T07:33:54.362Z,23.10
2018-12-28T07:36:38.089Z,23.10
2018-12-28T07:39:24.477Z,23.10
2018-12-28T07:41:56.009Z,23.10
2018-12-28T07:44:42.402Z,23.10
2018-12-28T07:47:13.949Z,23.10
2018-12-28T07:49:57.473Z,23.10
2018-12-28T07:52:46.776Z,23.10
2018-12-28T07:55:33.087Z,23.10
2018-12-28T07:58:13.536Z,23.20
2018-12-28T08:00:45.077Z,23.20
2018-12-28T08:03:35.083Z,23.20
2018-12-28T08:06:18.750Z,23.30
2018-12-28T08:09:05.242Z,23.30
2018-12-28T08:11:36.737Z,23.30
2018-12-28T08:14:24.817Z,23.30
2018-12-28T08:17:02.242Z,23.30
2018-12-28T08:19:54.602Z,23.30
2018-12-28T08:22:42.406Z,23.30
2018-12-28T08:25:22.430Z,23.30
2018-12-28T08:28:10.229Z,23.40
2018-12-28T08:30:59.465Z,23.40
2018-12-28T08:33:33.865Z,23.40
2018-12-28T08:36:20.418Z,23.50
2018-12-28T08:38:51.959Z,23.60
2018-12-28T08:41:39.917Z,23.70
2018-12-28T08:44:26.577Z,23.70
2018-12-28T08:47:09.992Z,23.70
2018-12-28T08:49:56.441Z,23.80
2018-12-28T08:52:37.033Z,23.80
2018-12-28T08:55:23.814Z,23.80
2018-12-28T08:57:57.978Z,23.90
2018-12-28T09:00:53.624Z,23.90
2018-12-28T09:03:36.959Z,23.90
2018-12-28T09:06:32.185Z,23.90
2018-12-28T09:09:25.814Z,23.90
2018-12-28T09:12:03.183Z,23.90
2018-12-28T09:14:37.565Z,23.90
2018-12-28T09:17:20.957Z,23.90
2018-12-28T09:20:14.821Z,23.90
2018-12-28T09:22:58.054Z,23.90
2018-12-28T09:25:47.505Z,23.90
2018-12-28T09:28:19.129Z,24.00
2018-12-28T09:31:10.013Z,23.90
2018-12-28T09:33:50.374Z,23.90
2018-12-28T09:36:24.784Z,23.90
2018-12-28T09:39:01.841Z,23.90
2018-12-28T09:41:50.087Z,23.90
2018-12-28T09:44:40.925Z,23.90
2018-12-28T09:47:12.428Z,23.80
2018-12-28T09:49:50.086Z,23.80
2018-12-28T09:52:24.313Z,23.80
2018-12-28T09:54:55.841Z,23.80
2018-12-28T09:57:38.665Z,23.80
2018-12-28T10:00:13.144Z,23.90
2018-12-28T10:03:01.082Z,23.90
2018-12-28T10:05:32.658Z,24.00
2018-12-28T10:08:29.832Z,24.00
2018-12-28T10:11:01.357Z,24.00
2018-12-28T10:13:41.541Z,24.00
2018-12-28T10:16:13.071Z,24.00
2018-12-28T10:18:41.304Z,24.00
2018-12-28T10:21:09.549Z,24.00
2018-12-28T10:23:37.873Z,24.00
2018-12-28T10:26:06.114Z,24.00
2018-12-28T10:28:34.345Z,24.00
2018-12-28T10:31:02.586Z,24.00
2018-12-28T10:33:36.685Z,24.00
2018-12-28T10:36:00.782Z,23.90
2018-12-28T10:38:29.037Z,23.90
2018-12-28T10:40:57.324Z,24.00
2018-12-28T10:43:25.568Z,23.90
2018-12-28T10:45:53.794Z,24.00
2018-12-28T10:48:22.023Z,23.90
2018-12-28T10:50:50.264Z,24.00
2018-12-28T10:53:18.518Z,24.00
2018-12-28T10:55:46.757Z,23.90
2018-12-28T10:58:14.993Z,24.00
2018-12-28T11:00:43.966Z,23.90
2018-12-28T11:03:12.201Z,24.00
2018-12-28T11:05:40.445Z,24.00
2018-12-28T11:08:08.684Z,24.00
2018-12-28T11:10:36.929Z,24.00
2018-12-28T11:13:05.161Z,24.00
2018-12-28T11:15:33.395Z,24.00
2018-12-28T11:18:01.669Z,24.00
2018-12-28T11:20:29.893Z,24.00
2018-12-28T11:22:58.413Z,24.00
2018-12-28T11:25:26.652Z,24.00
2018-12-28T11:27:54.902Z,24.00
2018-12-28T11:30:23.133Z,24.00
2018-12-28T11:32:51.385Z,24.00
2018-12-28T11:35:19.617Z,24.00
2018-12-28T11:37:47.857Z,24.00
2018-12-28T11:40:16.089Z,23.90
2018-12-28T11:42:44.334Z,23.90
2018-12-28T11:45:12.597Z,23.90
2018-12-28T11:47:41.162Z,23.90
2018-12-28T11:50:09.426Z,23.90
2018-12-28T11:52:37.684Z,23.90
2018-12-28T11:55:05.917Z,23.90
2018-12-28T11:57:34.162Z,23.90
2018-12-28T12:00:02.417Z,23.90
2018-12-28T12:02:31.089Z,23.90
2018-12-28T12:04:59.385Z,23.90
2018-12-28T12:07:27.656Z,23.90
2018-12-28T12:09:55.877Z,23.80
2018-12-28T12:12:24.132Z,23.90
2018-12-28T12:14:52.364Z,23.90
2018-12-28T12:17:20.633Z,23.90
2018-12-28T12:19:48.854Z,23.90
2018-12-28T12:22:17.097Z,23.90
2018-12-28T12:24:45.325Z,23.90
2018-12-28T12:27:13.570Z,23.90
2018-12-28T12:29:41.801Z,23.90
2018-12-28T12:32:10.046Z,23.90
2018-12-28T12:34:38.302Z,23.90
2018-12-28T12:37:06.537Z,23.90
2018-12-28T12:39:34.769Z,23.90
2018-12-28T12:42:07.626Z,23.90
2018-12-28T12:44:32.966Z,23.90
2018-12-28T12:47:01.809Z,24.00
2018-12-28T12:49:30.034Z,23.90
2018-12-28T12:51:58.281Z,24.00
2018-12-28T12:54:26.514Z,23.90
2018-12-28T12:56:54.753Z,24.00
2018-12-28T12:59:24.113Z,24.00
2018-12-28T13:01:52.365Z,24.00
2018-12-28T13:04:20.606Z,24.00
2018-12-28T13:06:48.846Z,24.00
2018-12-28T13:09:17.131Z,24.00
2018-12-28T13:11:45.366Z,24.00
2018-12-28T13:14:13.633Z,24.00
2018-12-28T13:16:41.857Z,24.00
2018-12-28T13:19:10.105Z,24.00
2018-12-28T13:21:38.360Z,24.00
2018-12-28T13:24:07.169Z,24.00
2018-12-28T13:26:35.672Z,24.00
2018-12-28T13:29:03.918Z,24.00
2018-12-28T13:31:32.149Z,24.00
2018-12-28T13:34:00.394Z,24.00
2018-12-28T13:36:28.649Z,24.00
2018-12-28T13:38:56.901Z,24.00
2018-12-28T13:41:25.130Z,24.00
2018-12-28T13:43:53.371Z,24.00
2018-12-28T13:46:21.605Z,24.00
2018-12-28T13:48:49.865Z,24.00
2018-12-28T13:51:18.129Z,24.00
2018-12-28T13:53:46.369Z,24.00
2018-12-28T13:56:14.603Z,24.00
2018-12-28T13:58:42.845Z,24.00
2018-12-28T14:01:11.085Z,24.00
2018-12-28T14:03:39.359Z,24.00
2018-12-28T14:06:07.589Z,23.90
2018-12-28T14:08:35.841Z,24.00
2018-12-28T14:11:07.985Z,24.00
2018-12-28T14:13:34.068Z,24.00
2018-12-28T14:16:02.302Z,24.00
2018-12-28T14:18:30.555Z,24.00
2018-12-28T14:20:59.350Z,24.00
2018-12-28T14:23:28.148Z,24.00
2018-12-28T14:25:56.961Z,24.10
2018-12-28T14:28:25.197Z,24.10
2018-12-28T14:30:54.006Z,24.10
2018-12-28T14:33:22.241Z,24.10
2018-12-28T14:35:50.506Z,24.00
2018-12-28T14:38:18.728Z,24.00
2018-12-28T14:40:47.141Z,24.00
2018-12-28T14:43:15.374Z,24.00
2018-12-28T14:45:43.617Z,24.00
2018-12-28T14:48:12.795Z,24.00
2018-12-28T14:50:41.153Z,24.00
2018-12-28T14:53:09.849Z,24.00
2018-12-28T14:55:38.088Z,24.00
2018-12-28T14:58:06.553Z,24.00
2018-12-28T15:00:39.145Z,24.00
2018-12-28T15:03:07.401Z,24.00
2018-12-28T15:05:35.641Z,24.00
2018-12-28T15:08:03.877Z,24.00
2018-12-28T15:10:32.137Z,24.00
2018-12-28T15:13:00.389Z,24.10
2018-12-28T15:15:30.734Z,24.10
2018-12-28T15:17:58.991Z,24.10
2018-12-28T15:20:27.225Z,24.20
2018-12-28T15:22:55.459Z,24.20
2018-12-28T15:25:23.702Z,24.20
2018-12-28T15:27:51.934Z,24.20
2018-12-28T15:30:20.178Z,24.20
2018-12-28T15:32:49.005Z,24.20
2018-12-28T15:35:17.265Z,24.20
2018-12-28T15:37:45.520Z,24.20
2018-12-28T15:40:13.765Z,24.20
2018-12-28T15:42:41.995Z,24.20
2018-12-28T15:45:10.233Z,24.20
2018-12-28T15:47:38.469Z,24.10
2018-12-28T15:50:07.001Z,24.10
2018-12-28T15:52:35.234Z,24.10
2018-12-28T15:55:03.496Z,24.10
2018-12-28T15:57:31.722Z,24.10
2018-12-28T15:59:59.949Z,24.10
2018-12-28T16:02:28.190Z,24.10
2018-12-28T16:04:56.417Z,24.10
2018-12-28T16:07:24.682Z,24.00
2018-12-28T16:09:52.928Z,24.10
2018-12-28T16:12:21.170Z,24.10
2018-12-28T16:14:49.402Z,24.10
2018-12-28T16:17:18.114Z,24.00
2018-12-28T16:19:46.343Z,24.10
2018-12-28T16:22:14.585Z,24.10
2018-12-28T16:24:43.377Z,24.10
2018-12-28T16:27:11.619Z,24.10
2018-12-28T16:29:39.879Z,24.10
2018-12-28T16:32:08.667Z,24.10
2018-12-28T16:34:36.898Z,24.10
2018-12-28T16:37:05.145Z,24.10
2018-12-28T16:39:33.414Z,24.10
2018-12-28T16:42:01.659Z,24.10
2018-12-28T16:44:29.885Z,24.10
2018-12-28T16:46:58.130Z,24.10
2018-12-28T16:49:26.361Z,24.10
2018-12-28T16:51:54.602Z,24.10
2018-12-28T16:54:22.838Z,24.10
2018-12-28T16:56:51.081Z,24.10
2018-12-28T16:59:19.313Z,24.10
2018-12-28T17:01:47.825Z,24.10
2018-12-28T17:04:16.059Z,24.10
2018-12-28T17:06:44.281Z,24.10
2018-12-28T17:09:12.526Z,24.10
2018-12-28T17:11:40.757Z,24.10
2018-12-28T17:14:12.418Z,24.10
2018-12-28T17:16:38.950Z,24.10
2018-12-28T17:19:07.214Z,24.10
2018-12-28T17:21:35.421Z,24.10
2018-12-28T17:24:03.693Z,24.10
2018-12-28T17:26:31.921Z,24.00
2018-12-28T17:29:00.162Z,24.10
2018-12-28T17:31:28.393Z,24.00
2018-12-28T17:33:56.639Z,24.10
2018-12-28T17:36:24.874Z,24.10
2018-12-28T17:38:53.138Z,24.10
2018-12-28T17:41:21.385Z,24.00
2018-12-28T17:43:50.198Z,24.00
2018-12-28T17:46:18.481Z,24.10
2018-12-28T17:48:46.749Z,24.10
2018-12-28T17:51:14.993Z,24.10
2018-12-28T17:53:43.236Z,24.10
2018-12-28T17:56:11.469Z,24.10
2018-12-28T17:58:39.738Z,24.10
2018-12-28T18:01:07.969Z,24.10
2018-12-28T18:03:36.208Z,24.10
2018-12-28T18:06:04.468Z,24.10
2018-12-28T18:08:32.729Z,24.10
2018-12-28T18:11:00.957Z,24.10
2018-12-28T18:13:29.203Z,24.10
2018-12-28T18:15:57.438Z,24.10
2018-12-28T18:18:25.669Z,24.10
2018-12-28T18:20:53.933Z,24.10
2018-12-28T18:23:22.162Z,24.10
2018-12-28T18:25:51.004Z,24.20
2018-12-28T18:28:19.262Z,24.20
2018-12-28T18:30:47.526Z,24.10
2018-12-28T18:33:15.779Z,24.20
2018-12-28T18:35:44.021Z,24.20
2018-12-28T18:38:12.290Z,24.20
2018-12-28T18:40:40.533Z,24.20
2018-12-28T18:43:08.789Z,24.20
2018-12-28T18:45:37.625Z,24.20
2018-12-28T18:48:05.858Z,24.20
2018-12-28T18:50:34.097Z,24.20
2018-12-28T18:53:02.364Z,24.20
2018-12-28T18:55:30.598Z,24.20
2018-12-28T18:57:58.843Z,24.20
2018-12-28T19:00:27.113Z,24.20
2018-12-28T19:02:55.914Z,24.20
2018-12-28T19:05:24.181Z,24.20
2018-12-28T19:07:52.418Z,24.20
2018-12-28T19:10:20.692Z,24.20
2018-12-28T19:12:48.927Z,24.20
2018-12-28T19:15:17.177Z,24.20
2018-12-28T19:17:45.501Z,24.20
2018-12-28T19:20:13.782Z,24.20
2018-12-28T19:22:42.015Z,24.20
2018-12-28T19:25:10.245Z,24.20
2018-12-28T19:27:38.489Z,24.20
2018-12-28T19:30:07.001Z,24.20
2018-12-28T19:32:35.244Z,24.20
2018-12-28T19:35:03.510Z,24.20
2018-12-28T19:37:31.749Z,24.20
2018-12-28T19:39:59.988Z,24.20
2018-12-28T19:42:28.234Z,24.20
2018-12-28T19:44:56.502Z,24.20
2018-12-28T19:47:24.772Z,24.20
2018-12-28T19:49:52.994Z,24.20
2018-12-28T19:52:21.238Z,24.20
2018-12-28T19:54:49.470Z,24.20
2018-12-28T19:57:17.715Z,24.20
2018-12-28T19:59:45.946Z,24.20
2018-12-28T20:02:14.190Z,24.20
2018-12-28T20:04:42.422Z,24.20
2018-12-28T20:07:11.337Z,24.20
2018-12-28T20:09:39.575Z,24.20
2018-12-28T20:12:07.810Z,24.20
2018-12-28T20:14:36.307Z,24.20
2018-12-28T20:17:05.225Z,24.20
2018-12-28T20:19:33.470Z,24.20
2018-12-28T20:22:01.725Z,24.20
2018-12-28T20:24:29.982Z,24.20
2018-12-28T20:26:58.222Z,24.20
2018-12-28T20:29:26.481Z,24.10
2018-12-28T20:31:54.740Z,24.20
2018-12-28T20:34:22.987Z,24.20
2018-12-28T20:36:51.226Z,24.20
2018-12-28T20:39:19.483Z,24.20
2018-12-28T20:41:47.737Z,24.20
2018-12-28T20:44:15.990Z,24.20
2018-12-28T20:46:44.221Z,24.20
2018-12-28T20:49:12.470Z,24.20
2018-12-28T20:51:40.697Z,24.20
2018-12-28T20:54:08.973Z,24.20
2018-12-28T20:56:37.677Z,24.20
2018-12-28T20:59:05.918Z,24.10
2018-12-28T21:01:34.145Z,24.20
2018-12-28T21:04:02.389Z,24.20
2018-12-28T21:06:30.641Z,24.20
2018-12-28T21:08:58.883Z,24.10
2018-12-28T21:11:27.118Z,24.10
2018-12-28T21:13:55.366Z,24.10
2018-12-28T21:16:23.603Z,24.10
2018-12-28T21:18:51.898Z,24.10
2018-12-28T21:21:20.130Z,24.10
2018-12-28T21:23:48.373Z,24.10
2018-12-28T21:26:16.629Z,24.10
2018-12-28T21:28:44.949Z,24.10
2018-12-28T21:31:13.451Z,24.10
2018-12-28T21:33:41.691Z,24.10
2018-12-28T21:36:09.946Z,24.10
2018-12-28T21:38:38.255Z,24.10
2018-12-28T21:41:06.509Z,24.10
2018-12-28T21:43:35.405Z,24.10
2018-12-28T21:46:03.644Z,24.10
2018-12-28T21:48:31.874Z,24.10
2018-12-28T21:51:00.118Z,24.10
2018-12-28T21:53:28.374Z,24.10
2018-12-28T21:55:56.617Z,24.10
2018-12-28T21:58:24.873Z,24.10
2018-12-28T22:00:53.114Z,24.10
2018-12-28T22:03:21.349Z,24.10
2018-12-28T22:05:49.595Z,24.10
2018-12-28T22:08:17.825Z,24.10
2018-12-28T22:10:46.090Z,24.10
2018-12-28T22:13:14.317Z,24.10
2018-12-28T22:15:42.561Z,24.10
2018-12-28T22:18:10.817Z,24.10
2018-12-28T22:20:39.073Z,24.10
2018-12-28T22:23:07.321Z,24.10
2018-12-28T22:25:35.565Z,24.10
2018-12-28T22:28:04.085Z,24.10
2018-12-28T22:30:32.353Z,24.00
2018-12-28T22:33:00.577Z,24.10
2018-12-28T22:35:28.825Z,24.10
2018-12-28T22:37:57.077Z,24.10
2018-12-28T22:40:25.318Z,24.10
2018-12-28T22:42:53.549Z,24.10
2018-12-28T22:45:21.829Z,24.10
2018-12-28T22:47:50.061Z,24.10
2018-12-28T22:50:18.293Z,24.10
2018-12-28T22:52:46.637Z,24.10
2018-12-28T22:55:14.866Z,24.10
2018-12-28T22:57:43.111Z,24.10
2018-12-28T23:00:12.978Z,24.00
2018-12-28T23:02:41.217Z,24.00
2018-12-28T23:05:09.450Z,24.00
2018-12-28T23:07:37.697Z,24.00
2018-12-28T23:10:06.766Z,24.00
2018-12-28T23:12:35.006Z,24.00
2018-12-28T23:15:03.875Z,24.00
2018-12-28T23:17:32.108Z,24.00
2018-12-28T23:20:00.341Z,24.00
2018-12-28T23:22:28.585Z,24.00
2018-12-28T23:24:56.818Z,23.90
2018-12-28T23:27:25.065Z,23.90
2018-12-28T23:29:58.240Z,23.90
2018-12-28T23:32:23.833Z,23.90
2018-12-28T23:34:52.085Z,23.90
2018-12-28T23:37:20.322Z,23.90
2018-12-28T23:39:48.558Z,23.90
2018-12-28T23:42:17.401Z,23.90
2018-12-28T23:44:47.795Z,23.90
2018-12-28T23:47:16.288Z,23.90
2018-12-28T23:49:44.542Z,23.90
2018-12-28T23:52:12.794Z,23.90
2018-12-28T23:54:41.057Z,23.90
2018-12-28T23:57:09.286Z,23.90
2018-12-28T23:59:38.201Z,23.80
